sensor_id;sensor_type;location;lat;lon;timestamp;P1;durP1;ratioP1;P2;durP2;ratioP2
18274;SDS011;19470;49.322;7.218;2023-07-13T00:01:18;7.85;;;2.10;;
18274;SDS011;19470;49.322;7.218;2023-07-13T00:03:47;4.35;;;2.30;;
18274;SDS011;19470;49.322;7.218;2023-07-13T00:06:13;4.28;;;2.15;;
18274;SDS011;19470;49.322;7.218;2023-07-13T00:08:40;4.68;;;2.22;;
18274;SDS011;19470;49.322;7.218;2023-07-13T00:11:06;5.38;;;2.55;;
18274;SDS011;19470;49.322;7.218;2023-07-13T00:13:35;5.32;;;2.13;;
18274;SDS011;19470;49.322;7.218;2023-07-13T00:16:03;5.28;;;1.95;;
18274;SDS011;19470;49.322;7.218;2023-07-13T00:18:30;5.68;;;2.33;;
18274;SDS011;19470;49.322;7.218;2023-07-13T00:20:57;5.07;;;1.85;;
18274;SDS011;19470;49.322;7.218;2023-07-13T00:23:30;4.80;;;2.17;;
18274;SDS011;19470;49.322;7.218;2023-07-13T00:25:58;3.95;;;1.90;;
18274;SDS011;19470;49.322;7.218;2023-07-13T00:28:25;6.55;;;2.13;;
18274;SDS011;19470;49.322;7.218;2023-07-13T00:30:52;7.35;;;2.20;;
18274;SDS011;19470;49.322;7.218;2023-07-13T00:33:19;5.00;;;2.10;;
18274;SDS011;19470;49.322;7.218;2023-07-13T00:35:45;3.58;;;2.10;;
18274;SDS011;19470;49.322;7.218;2023-07-13T00:38:14;4.97;;;2.13;;
18274;SDS011;19470;49.322;7.218;2023-07-13T00:40:40;3.92;;;2.17;;
18274;SDS011;19470;49.322;7.218;2023-07-13T00:43:09;4.53;;;2.10;;
18274;SDS011;19470;49.322;7.218;2023-07-13T00:48:40;4.43;;;1.88;;
18274;SDS011;19470;49.322;7.218;2023-07-13T00:51:09;3.40;;;2.03;;
18274;SDS011;19470;49.322;7.218;2023-07-13T00:53:39;3.75;;;2.10;;
18274;SDS011;19470;49.322;7.218;2023-07-13T00:56:06;5.35;;;2.45;;
18274;SDS011;19470;49.322;7.218;2023-07-13T00:58:33;5.75;;;2.20;;
18274;SDS011;19470;49.322;7.218;2023-07-13T01:01:00;3.78;;;2.25;;
18274;SDS011;19470;49.322;7.218;2023-07-13T01:03:26;3.90;;;2.03;;
18274;SDS011;19470;49.322;7.218;2023-07-13T01:05:54;5.88;;;2.38;;
18274;SDS011;19470;49.322;7.218;2023-07-13T01:08:21;5.60;;;2.30;;
18274;SDS011;19470;49.322;7.218;2023-07-13T01:10:52;5.47;;;1.90;;
18274;SDS011;19470;49.322;7.218;2023-07-13T01:13:19;4.68;;;2.60;;
18274;SDS011;19470;49.322;7.218;2023-07-13T01:15:47;8.18;;;2.20;;
18274;SDS011;19470;49.322;7.218;2023-07-13T01:18:17;8.05;;;2.45;;
18274;SDS011;19470;49.322;7.218;2023-07-13T01:20:51;3.25;;;2.40;;
18274;SDS011;19470;49.322;7.218;2023-07-13T01:23:18;4.60;;;2.40;;
18274;SDS011;19470;49.322;7.218;2023-07-13T01:25:45;5.60;;;2.30;;
18274;SDS011;19470;49.322;7.218;2023-07-13T01:28:12;3.35;;;2.20;;
18274;SDS011;19470;49.322;7.218;2023-07-13T01:30:39;5.40;;;2.75;;
18274;SDS011;19470;49.322;7.218;2023-07-13T01:33:10;11.50;;;5.78;;
18274;SDS011;19470;49.322;7.218;2023-07-13T01:35:38;4.68;;;2.30;;
18274;SDS011;19470;49.322;7.218;2023-07-13T01:38:05;5.88;;;2.22;;
18274;SDS011;19470;49.322;7.218;2023-07-13T01:40:34;4.72;;;2.10;;
18274;SDS011;19470;49.322;7.218;2023-07-13T01:43:01;4.82;;;2.65;;
18274;SDS011;19470;49.322;7.218;2023-07-13T01:45:27;4.90;;;2.10;;
18274;SDS011;19470;49.322;7.218;2023-07-13T01:47:54;3.97;;;2.45;;
18274;SDS011;19470;49.322;7.218;2023-07-13T01:50:21;7.20;;;2.33;;
18274;SDS011;19470;49.322;7.218;2023-07-13T01:52:47;5.22;;;2.60;;
18274;SDS011;19470;49.322;7.218;2023-07-13T01:55:16;2.58;;;2.08;;
18274;SDS011;19470;49.322;7.218;2023-07-13T01:57:43;3.17;;;2.45;;
18274;SDS011;19470;49.322;7.218;2023-07-13T02:00:10;5.82;;;1.90;;
18274;SDS011;19470;49.322;7.218;2023-07-13T02:02:37;3.13;;;2.00;;
18274;SDS011;19470;49.322;7.218;2023-07-13T02:05:04;6.07;;;2.20;;
18274;SDS011;19470;49.322;7.218;2023-07-13T02:07:31;3.72;;;2.17;;
18274;SDS011;19470;49.322;7.218;2023-07-13T02:09:57;5.38;;;2.10;;
18274;SDS011;19470;49.322;7.218;2023-07-13T02:12:25;2.78;;;2.20;;
18274;SDS011;19470;49.322;7.218;2023-07-13T02:14:52;5.28;;;2.80;;
18274;SDS011;19470;49.322;7.218;2023-07-13T02:17:18;5.43;;;2.38;;
18274;SDS011;19470;49.322;7.218;2023-07-13T02:19:45;7.95;;;2.95;;
18274;SDS011;19470;49.322;7.218;2023-07-13T02:22:11;4.38;;;2.13;;
18274;SDS011;19470;49.322;7.218;2023-07-13T02:24:38;6.82;;;2.60;;
18274;SDS011;19470;49.322;7.218;2023-07-13T02:27:05;7.13;;;2.90;;
18274;SDS011;19470;49.322;7.218;2023-07-13T02:29:34;2.47;;;2.20;;
18274;SDS011;19470;49.322;7.218;2023-07-13T02:32:00;4.80;;;2.17;;
18274;SDS011;19470;49.322;7.218;2023-07-13T02:34:27;4.07;;;1.90;;
18274;SDS011;19470;49.322;7.218;2023-07-13T02:36:53;3.35;;;2.10;;
18274;SDS011;19470;49.322;7.218;2023-07-13T02:39:20;6.88;;;2.17;;
18274;SDS011;19470;49.322;7.218;2023-07-13T02:41:46;2.90;;;1.90;;
18274;SDS011;19470;49.322;7.218;2023-07-13T02:44:13;156.10;;;87.07;;
18274;SDS011;19470;49.322;7.218;2023-07-13T02:46:41;48.83;;;29.98;;
18274;SDS011;19470;49.322;7.218;2023-07-13T02:49:08;26.58;;;16.90;;
18274;SDS011;19470;49.322;7.218;2023-07-13T02:51:35;8.05;;;2.35;;
18274;SDS011;19470;49.322;7.218;2023-07-13T02:54:02;16.10;;;8.18;;
18274;SDS011;19470;49.322;7.218;2023-07-13T02:56:30;6.68;;;2.95;;
18274;SDS011;19470;49.322;7.218;2023-07-13T02:58:58;4.32;;;2.00;;
18274;SDS011;19470;49.322;7.218;2023-07-13T03:01:24;7.30;;;2.00;;
18274;SDS011;19470;49.322;7.218;2023-07-13T03:03:52;3.75;;;2.13;;
18274;SDS011;19470;49.322;7.218;2023-07-13T03:06:19;5.18;;;2.17;;
18274;SDS011;19470;49.322;7.218;2023-07-13T03:08:46;3.22;;;2.30;;
18274;SDS011;19470;49.322;7.218;2023-07-13T03:11:14;3.00;;;2.38;;
18274;SDS011;19470;49.322;7.218;2023-07-13T03:13:43;5.63;;;2.40;;
18274;SDS011;19470;49.322;7.218;2023-07-13T03:16:10;7.25;;;2.28;;
18274;SDS011;19470;49.322;7.218;2023-07-13T03:18:37;4.53;;;2.78;;
18274;SDS011;19470;49.322;7.218;2023-07-13T03:21:05;3.53;;;2.17;;
18274;SDS011;19470;49.322;7.218;2023-07-13T03:23:32;4.45;;;2.35;;
18274;SDS011;19470;49.322;7.218;2023-07-13T03:26:02;2.60;;;2.13;;
18274;SDS011;19470;49.322;7.218;2023-07-13T03:28:30;6.15;;;2.50;;
18274;SDS011;19470;49.322;7.218;2023-07-13T03:31:00;2.50;;;2.15;;
18274;SDS011;19470;49.322;7.218;2023-07-13T03:33:28;5.93;;;2.72;;
18274;SDS011;19470;49.322;7.218;2023-07-13T03:35:55;4.38;;;2.40;;
18274;SDS011;19470;49.322;7.218;2023-07-13T03:38:23;4.97;;;2.70;;
18274;SDS011;19470;49.322;7.218;2023-07-13T03:40:51;3.72;;;2.47;;
18274;SDS011;19470;49.322;7.218;2023-07-13T03:43:17;4.35;;;2.15;;
18274;SDS011;19470;49.322;7.218;2023-07-13T03:45:45;4.05;;;2.70;;
18274;SDS011;19470;49.322;7.218;2023-07-13T03:48:13;4.10;;;2.50;;
18274;SDS011;19470;49.322;7.218;2023-07-13T03:50:40;8.57;;;2.00;;
18274;SDS011;19470;49.322;7.218;2023-07-13T03:53:07;6.68;;;2.60;;
18274;SDS011;19470;49.322;7.218;2023-07-13T03:55:35;5.25;;;2.40;;
18274;SDS011;19470;49.322;7.218;2023-07-13T04:00:51;3.58;;;2.30;;
18274;SDS011;19470;49.322;7.218;2023-07-13T04:03:17;96.45;;;53.33;;
18274;SDS011;19470;49.322;7.218;2023-07-13T04:05:44;40.08;;;23.67;;
18274;SDS011;19470;49.322;7.218;2023-07-13T04:08:11;6.57;;;2.53;;
18274;SDS011;19470;49.322;7.218;2023-07-13T04:10:39;3.33;;;2.42;;
18274;SDS011;19470;49.322;7.218;2023-07-13T04:13:05;8.27;;;3.55;;
18274;SDS011;19470;49.322;7.218;2023-07-13T04:15:32;18.55;;;8.82;;
18274;SDS011;19470;49.322;7.218;2023-07-13T04:17:59;42.13;;;27.67;;
18274;SDS011;19470;49.322;7.218;2023-07-13T04:20:25;35.65;;;23.73;;
18274;SDS011;19470;49.322;7.218;2023-07-13T04:22:52;10.73;;;6.38;;
18274;SDS011;19470;49.322;7.218;2023-07-13T04:25:19;6.03;;;2.78;;
18274;SDS011;19470;49.322;7.218;2023-07-13T04:27:47;37.83;;;21.33;;
18274;SDS011;19470;49.322;7.218;2023-07-13T04:30:13;17.80;;;11.68;;
18274;SDS011;19470;49.322;7.218;2023-07-13T04:32:40;4.50;;;2.45;;
18274;SDS011;19470;49.322;7.218;2023-07-13T04:35:07;4.25;;;2.15;;
18274;SDS011;19470;49.322;7.218;2023-07-13T04:37:34;4.43;;;2.72;;
18274;SDS011;19470;49.322;7.218;2023-07-13T04:40:00;3.72;;;2.40;;
18274;SDS011;19470;49.322;7.218;2023-07-13T04:42:27;9.93;;;2.90;;
18274;SDS011;19470;49.322;7.218;2023-07-13T04:44:55;4.65;;;2.60;;
18274;SDS011;19470;49.322;7.218;2023-07-13T04:47:22;6.63;;;2.83;;
18274;SDS011;19470;49.322;7.218;2023-07-13T04:49:48;10.43;;;2.55;;
18274;SDS011;19470;49.322;7.218;2023-07-13T04:52:14;5.45;;;2.55;;
18274;SDS011;19470;49.322;7.218;2023-07-13T04:54:41;4.55;;;2.50;;
18274;SDS011;19470;49.322;7.218;2023-07-13T04:57:07;3.88;;;1.95;;
18274;SDS011;19470;49.322;7.218;2023-07-13T04:59:34;3.53;;;2.50;;
18274;SDS011;19470;49.322;7.218;2023-07-13T05:02:02;6.00;;;2.65;;
18274;SDS011;19470;49.322;7.218;2023-07-13T05:04:29;6.93;;;2.53;;
18274;SDS011;19470;49.322;7.218;2023-07-13T05:06:56;4.72;;;2.28;;
18274;SDS011;19470;49.322;7.218;2023-07-13T05:09:22;8.32;;;2.28;;
18274;SDS011;19470;49.322;7.218;2023-07-13T05:11:49;6.07;;;2.45;;
18274;SDS011;19470;49.322;7.218;2023-07-13T05:14:15;75.60;;;46.22;;
18274;SDS011;19470;49.322;7.218;2023-07-13T05:16:42;45.47;;;27.27;;
18274;SDS011;19470;49.322;7.218;2023-07-13T05:19:10;16.70;;;10.27;;
18274;SDS011;19470;49.322;7.218;2023-07-13T05:21:36;16.80;;;10.65;;
18274;SDS011;19470;49.322;7.218;2023-07-13T05:24:03;6.38;;;4.28;;
18274;SDS011;19470;49.322;7.218;2023-07-13T05:26:29;5.43;;;2.70;;
18274;SDS011;19470;49.322;7.218;2023-07-13T05:28:56;6.15;;;2.80;;
18274;SDS011;19470;49.322;7.218;2023-07-13T05:31:22;5.47;;;2.67;;
18274;SDS011;19470;49.322;7.218;2023-07-13T05:33:49;4.65;;;2.33;;
18274;SDS011;19470;49.322;7.218;2023-07-13T05:36:17;8.60;;;2.42;;
18274;SDS011;19470;49.322;7.218;2023-07-13T05:38:43;5.68;;;2.60;;
18274;SDS011;19470;49.322;7.218;2023-07-13T05:41:10;3.67;;;2.17;;
18274;SDS011;19470;49.322;7.218;2023-07-13T05:46:58;5.93;;;2.50;;
18274;SDS011;19470;49.322;7.218;2023-07-13T05:49:25;6.13;;;2.67;;
18274;SDS011;19470;49.322;7.218;2023-07-13T05:51:52;12.07;;;2.55;;
18274;SDS011;19470;49.322;7.218;2023-07-13T05:54:19;6.75;;;2.08;;
18274;SDS011;19470;49.322;7.218;2023-07-13T05:56:45;5.13;;;2.67;;
18274;SDS011;19470;49.322;7.218;2023-07-13T05:59:12;4.68;;;2.00;;
18274;SDS011;19470;49.322;7.218;2023-07-13T06:01:38;3.50;;;2.10;;
18274;SDS011;19470;49.322;7.218;2023-07-13T06:04:05;8.18;;;2.42;;
18274;SDS011;19470;49.322;7.218;2023-07-13T06:06:31;9.45;;;2.70;;
18274;SDS011;19470;49.322;7.218;2023-07-13T06:09:00;5.05;;;2.40;;
18274;SDS011;19470;49.322;7.218;2023-07-13T06:11:27;5.93;;;2.40;;
18274;SDS011;19470;49.322;7.218;2023-07-13T06:13:55;6.85;;;2.13;;
18274;SDS011;19470;49.322;7.218;2023-07-13T06:16:22;6.20;;;2.10;;
18274;SDS011;19470;49.322;7.218;2023-07-13T06:18:48;7.47;;;2.33;;
18274;SDS011;19470;49.322;7.218;2023-07-13T06:21:16;5.25;;;2.10;;
18274;SDS011;19470;49.322;7.218;2023-07-13T06:23:44;4.25;;;1.70;;
18274;SDS011;19470;49.322;7.218;2023-07-13T06:26:14;6.28;;;2.22;;
18274;SDS011;19470;49.322;7.218;2023-07-13T06:28:41;5.20;;;1.80;;
18274;SDS011;19470;49.322;7.218;2023-07-13T06:31:08;4.72;;;1.80;;
18274;SDS011;19470;49.322;7.218;2023-07-13T06:33:36;5.25;;;1.63;;
18274;SDS011;19470;49.322;7.218;2023-07-13T06:36:03;3.58;;;1.10;;
18274;SDS011;19470;49.322;7.218;2023-07-13T06:38:31;4.30;;;1.58;;
18274;SDS011;19470;49.322;7.218;2023-07-13T06:40:58;11.77;;;2.83;;
18274;SDS011;19470;49.322;7.218;2023-07-13T06:43:26;3.92;;;1.63;;
18274;SDS011;19470;49.322;7.218;2023-07-13T06:45:54;3.75;;;1.33;;
18274;SDS011;19470;49.322;7.218;2023-07-13T06:48:21;3.38;;;1.40;;
18274;SDS011;19470;49.322;7.218;2023-07-13T06:50:48;12.57;;;10.68;;
18274;SDS011;19470;49.322;7.218;2023-07-13T06:53:17;4.88;;;1.30;;
18274;SDS011;19470;49.322;7.218;2023-07-13T06:55:44;4.38;;;1.30;;
18274;SDS011;19470;49.322;7.218;2023-07-13T06:58:11;4.82;;;1.25;;
18274;SDS011;19470;49.322;7.218;2023-07-13T07:00:39;5.40;;;1.50;;
18274;SDS011;19470;49.322;7.218;2023-07-13T07:03:06;7.55;;;1.75;;
18274;SDS011;19470;49.322;7.218;2023-07-13T07:05:33;5.53;;;1.30;;
18274;SDS011;19470;49.322;7.218;2023-07-13T07:07:59;7.22;;;2.05;;
18274;SDS011;19470;49.322;7.218;2023-07-13T07:10:26;8.10;;;1.80;;
18274;SDS011;19470;49.322;7.218;2023-07-13T07:12:53;8.75;;;1.48;;
18274;SDS011;19470;49.322;7.218;2023-07-13T07:15:20;5.90;;;1.50;;
18274;SDS011;19470;49.322;7.218;2023-07-13T07:17:47;5.22;;;1.50;;
18274;SDS011;19470;49.322;7.218;2023-07-13T07:20:14;4.20;;;1.40;;
18274;SDS011;19470;49.322;7.218;2023-07-13T07:22:40;3.95;;;1.20;;
18274;SDS011;19470;49.322;7.218;2023-07-13T07:25:07;4.18;;;1.20;;
18274;SDS011;19470;49.322;7.218;2023-07-13T07:27:34;4.55;;;1.58;;
18274;SDS011;19470;49.322;7.218;2023-07-13T07:30:00;3.95;;;1.40;;
18274;SDS011;19470;49.322;7.218;2023-07-13T07:32:28;5.38;;;2.53;;
18274;SDS011;19470;49.322;7.218;2023-07-13T07:34:56;4.43;;;1.30;;
18274;SDS011;19470;49.322;7.218;2023-07-13T07:37:23;7.20;;;1.42;;
18274;SDS011;19470;49.322;7.218;2023-07-13T07:39:50;5.43;;;1.30;;
18274;SDS011;19470;49.322;7.218;2023-07-13T07:42:16;4.88;;;1.40;;
18274;SDS011;19470;49.322;7.218;2023-07-13T07:44:43;6.07;;;4.05;;
18274;SDS011;19470;49.322;7.218;2023-07-13T07:47:09;5.35;;;1.40;;
18274;SDS011;19470;49.322;7.218;2023-07-13T07:49:36;3.45;;;1.30;;
18274;SDS011;19470;49.322;7.218;2023-07-13T07:52:05;2.95;;;1.20;;
18274;SDS011;19470;49.322;7.218;2023-07-13T07:54:32;3.08;;;1.10;;
18274;SDS011;19470;49.322;7.218;2023-07-13T07:56:58;3.60;;;1.58;;
18274;SDS011;19470;49.322;7.218;2023-07-13T07:59:25;6.45;;;1.67;;
18274;SDS011;19470;49.322;7.218;2023-07-13T08:01:51;4.25;;;1.42;;
18274;SDS011;19470;49.322;7.218;2023-07-13T08:04:18;3.33;;;1.55;;
18274;SDS011;19470;49.322;7.218;2023-07-13T08:06:44;3.60;;;1.20;;
18274;SDS011;19470;49.322;7.218;2023-07-13T08:09:12;6.68;;;1.90;;
18274;SDS011;19470;49.322;7.218;2023-07-13T08:11:38;6.35;;;1.75;;
18274;SDS011;19470;49.322;7.218;2023-07-13T08:14:05;7.50;;;1.60;;
18274;SDS011;19470;49.322;7.218;2023-07-13T08:16:31;4.07;;;1.55;;
18274;SDS011;19470;49.322;7.218;2023-07-13T08:18:58;4.20;;;2.05;;
18274;SDS011;19470;49.322;7.218;2023-07-13T08:21:25;3.83;;;1.55;;
18274;SDS011;19470;49.322;7.218;2023-07-13T08:23:51;4.85;;;1.98;;
18274;SDS011;19470;49.322;7.218;2023-07-13T08:26:19;3.70;;;2.25;;
18274;SDS011;19470;49.322;7.218;2023-07-13T08:28:46;3.95;;;2.33;;
18274;SDS011;19470;49.322;7.218;2023-07-13T08:31:13;5.18;;;3.25;;
18274;SDS011;19470;49.322;7.218;2023-07-13T08:33:40;5.53;;;2.10;;
18274;SDS011;19470;49.322;7.218;2023-07-13T08:36:06;3.60;;;2.42;;
18274;SDS011;19470;49.322;7.218;2023-07-13T08:38:33;9.52;;;4.80;;
18274;SDS011;19470;49.322;7.218;2023-07-13T08:41:00;5.78;;;3.65;;
18274;SDS011;19470;49.322;7.218;2023-07-13T08:43:36;8.45;;;3.65;;
18274;SDS011;19470;49.322;7.218;2023-07-13T08:46:05;9.20;;;4.53;;
18274;SDS011;19470;49.322;7.218;2023-07-13T08:48:38;15.02;;;14.07;;
18274;SDS011;19470;49.322;7.218;2023-07-13T08:51:10;63.63;;;60.22;;
18274;SDS011;19470;49.322;7.218;2023-07-13T08:53:47;91.93;;;86.80;;
18274;SDS011;19470;49.322;7.218;2023-07-13T08:56:17;217.07;;;206.35;;
18274;SDS011;19470;49.322;7.218;2023-07-13T08:58:48;394.00;;;369.38;;
18274;SDS011;19470;49.322;7.218;2023-07-13T09:01:20;67.88;;;64.32;;
18274;SDS011;19470;49.322;7.218;2023-07-13T09:03:52;127.53;;;120.93;;
18274;SDS011;19470;49.322;7.218;2023-07-13T09:06:27;82.68;;;78.28;;
18274;SDS011;19470;49.322;7.218;2023-07-13T09:09:06;107.20;;;101.72;;
18274;SDS011;19470;49.322;7.218;2023-07-13T09:11:41;82.15;;;77.68;;
18274;SDS011;19470;49.322;7.218;2023-07-13T09:14:20;72.70;;;68.78;;
18274;SDS011;19470;49.322;7.218;2023-07-13T09:16:59;87.65;;;83.18;;
18274;SDS011;19470;49.322;7.218;2023-07-13T09:19:28;38.30;;;36.10;;
18274;SDS011;19470;49.322;7.218;2023-07-13T09:21:59;57.53;;;53.85;;
18274;SDS011;19470;49.322;7.218;2023-07-13T09:24:29;209.65;;;199.18;;
18274;SDS011;19470;49.322;7.218;2023-07-13T09:27:03;251.95;;;238.70;;
18274;SDS011;19470;49.322;7.218;2023-07-13T09:29:40;101.07;;;95.70;;
18274;SDS011;19470;49.322;7.218;2023-07-13T09:32:12;183.27;;;174.07;;
18274;SDS011;19470;49.322;7.218;2023-07-13T09:34:41;334.10;;;315.85;;
18274;SDS011;19470;49.322;7.218;2023-07-13T09:37:07;185.93;;;176.27;;
18274;SDS011;19470;49.322;7.218;2023-07-13T09:39:35;318.92;;;302.23;;
18274;SDS011;19470;49.322;7.218;2023-07-13T09:42:06;377.17;;;356.52;;
18274;SDS011;19470;49.322;7.218;2023-07-13T09:44:51;1072.45;;;983.88;;
18274;SDS011;19470;49.322;7.218;2023-07-13T09:47:21;1100.95;;;999.90;;
18274;SDS011;19470;49.322;7.218;2023-07-13T09:49:53;832.15;;;771.88;;
18274;SDS011;19470;49.322;7.218;2023-07-13T09:52:21;365.85;;;346.63;;
18274;SDS011;19470;49.322;7.218;2023-07-13T09:54:48;429.63;;;406.05;;
18274;SDS011;19470;49.322;7.218;2023-07-13T09:57:17;1028.57;;;943.38;;
18274;SDS011;19470;49.322;7.218;2023-07-13T09:59:50;406.17;;;384.33;;
18274;SDS011;19470;49.322;7.218;2023-07-13T10:02:25;318.63;;;302.33;;
18274;SDS011;19470;49.322;7.218;2023-07-13T10:04:58;589.05;;;552.78;;
18274;SDS011;19470;49.322;7.218;2023-07-13T10:07:26;291.15;;;276.30;;
18274;SDS011;19470;49.322;7.218;2023-07-13T10:09:53;189.48;;;179.75;;
18274;SDS011;19470;49.322;7.218;2023-07-13T10:12:20;323.50;;;306.23;;
18274;SDS011;19470;49.322;7.218;2023-07-13T10:14:51;292.38;;;277.83;;
18274;SDS011;19470;49.322;7.218;2023-07-13T10:17:21;370.85;;;350.88;;
18274;SDS011;19470;49.322;7.218;2023-07-13T10:19:55;445.27;;;421.35;;
18274;SDS011;19470;49.322;7.218;2023-07-13T10:22:26;459.35;;;433.67;;
18274;SDS011;19470;49.322;7.218;2023-07-13T10:24:57;443.50;;;419.30;;
18274;SDS011;19470;49.322;7.218;2023-07-13T10:27:25;561.63;;;528.58;;
18274;SDS011;19470;49.322;7.218;2023-07-13T10:30:02;640.28;;;599.55;;
18274;SDS011;19470;49.322;7.218;2023-07-13T10:32:35;455.48;;;430.75;;
18274;SDS011;19470;49.322;7.218;2023-07-13T10:35:02;775.65;;;723.13;;
18274;SDS011;19470;49.322;7.218;2023-07-13T10:37:37;522.05;;;491.95;;
18274;SDS011;19470;49.322;7.218;2023-07-13T10:40:12;402.38;;;381.05;;
18274;SDS011;19470;49.322;7.218;2023-07-13T10:42:40;325.20;;;308.48;;
18274;SDS011;19470;49.322;7.218;2023-07-13T10:45:14;513.83;;;483.25;;
18274;SDS011;19470;49.322;7.218;2023-07-13T10:47:42;509.92;;;479.70;;
18274;SDS011;19470;49.322;7.218;2023-07-13T10:50:19;435.95;;;411.33;;
18274;SDS011;19470;49.322;7.218;2023-07-13T10:52:48;317.77;;;300.55;;
18274;SDS011;19470;49.322;7.218;2023-07-13T10:55:35;511.23;;;481.88;;
18274;SDS011;19470;49.322;7.218;2023-07-13T10:58:11;610.08;;;571.35;;
18274;SDS011;19470;49.322;7.218;2023-07-13T11:00:51;451.55;;;425.30;;
18274;SDS011;19470;49.322;7.218;2023-07-13T11:03:24;463.70;;;436.38;;
18274;SDS011;19470;49.322;7.218;2023-07-13T11:06:03;457.50;;;430.98;;
18274;SDS011;19470;49.322;7.218;2023-07-13T11:08:35;337.13;;;319.58;;
18274;SDS011;19470;49.322;7.218;2023-07-13T11:11:03;323.00;;;306.77;;
18274;SDS011;19470;49.322;7.218;2023-07-13T11:14:03;389.67;;;369.30;;
18274;SDS011;19470;49.322;7.218;2023-07-13T11:16:36;1131.28;;;999.90;;
18274;SDS011;19470;49.322;7.218;2023-07-13T11:19:24;1111.72;;;999.90;;
18274;SDS011;19470;49.322;7.218;2023-07-13T11:22:02;1083.15;;;994.00;;
18274;SDS011;19470;49.322;7.218;2023-07-13T11:24:49;1058.97;;;974.10;;
18274;SDS011;19470;49.322;7.218;2023-07-13T11:27:27;998.67;;;921.03;;
18274;SDS011;19470;49.322;7.218;2023-07-13T11:30:06;347.00;;;328.85;;
18274;SDS011;19470;49.322;7.218;2023-07-13T11:32:35;361.17;;;342.52;;
18274;SDS011;19470;49.322;7.218;2023-07-13T11:35:03;449.20;;;420.55;;
18274;SDS011;19470;49.322;7.218;2023-07-13T11:37:30;361.45;;;341.88;;
18274;SDS011;19470;49.322;7.218;2023-07-13T11:39:58;357.45;;;339.00;;
18274;SDS011;19470;49.322;7.218;2023-07-13T11:42:26;407.92;;;386.35;;
18274;SDS011;19470;49.322;7.218;2023-07-13T11:44:54;461.02;;;433.75;;
18274;SDS011;19470;49.322;7.218;2023-07-13T11:47:21;499.40;;;470.95;;
18274;SDS011;19470;49.322;7.218;2023-07-13T11:49:51;531.05;;;499.88;;
18274;SDS011;19470;49.322;7.218;2023-07-13T11:52:21;540.53;;;509.23;;
18274;SDS011;19470;49.322;7.218;2023-07-13T11:54:55;526.60;;;494.98;;
18274;SDS011;19470;49.322;7.218;2023-07-13T11:57:23;545.17;;;512.42;;
18274;SDS011;19470;49.322;7.218;2023-07-13T11:59:53;446.33;;;418.98;;
18274;SDS011;19470;49.322;7.218;2023-07-13T12:02:24;348.00;;;330.23;;
18274;SDS011;19470;49.322;7.218;2023-07-13T12:04:54;576.22;;;539.83;;
18274;SDS011;19470;49.322;7.218;2023-07-13T12:07:20;569.90;;;535.63;;
18274;SDS011;19470;49.322;7.218;2023-07-13T12:09:48;588.97;;;552.80;;
18274;SDS011;19470;49.322;7.218;2023-07-13T12:12:17;779.10;;;724.80;;
18274;SDS011;19470;49.322;7.218;2023-07-13T12:14:44;688.38;;;643.88;;
18274;SDS011;19470;49.322;7.218;2023-07-13T12:17:19;603.58;;;566.42;;
18274;SDS011;19470;49.322;7.218;2023-07-13T12:19:47;594.53;;;559.00;;
18274;SDS011;19470;49.322;7.218;2023-07-13T12:22:15;517.97;;;487.85;;
18274;SDS011;19470;49.322;7.218;2023-07-13T12:24:44;544.00;;;511.90;;
18274;SDS011;19470;49.322;7.218;2023-07-13T12:27:18;285.50;;;269.63;;
18274;SDS011;19470;49.322;7.218;2023-07-13T12:29:51;248.70;;;235.70;;
18274;SDS011;19470;49.322;7.218;2023-07-13T12:32:21;420.33;;;397.42;;
18274;SDS011;19470;49.322;7.218;2023-07-13T12:34:51;522.10;;;491.88;;
18274;SDS011;19470;49.322;7.218;2023-07-13T12:37:20;523.92;;;493.15;;
18274;SDS011;19470;49.322;7.218;2023-07-13T12:39:47;703.67;;;657.78;;
18274;SDS011;19470;49.322;7.218;2023-07-13T12:42:19;754.30;;;704.63;;
18274;SDS011;19470;49.322;7.218;2023-07-13T12:44:49;673.58;;;630.78;;
18274;SDS011;19470;49.322;7.218;2023-07-13T12:47:16;735.80;;;688.20;;
18274;SDS011;19470;49.322;7.218;2023-07-13T12:49:49;828.17;;;766.55;;
18274;SDS011;19470;49.322;7.218;2023-07-13T12:52:20;813.50;;;759.08;;
18274;SDS011;19470;49.322;7.218;2023-07-13T12:54:52;909.17;;;840.63;;
18274;SDS011;19470;49.322;7.218;2023-07-13T12:57:22;922.85;;;850.58;;
18274;SDS011;19470;49.322;7.218;2023-07-13T12:59:51;844.33;;;782.22;;
18274;SDS011;19470;49.322;7.218;2023-07-13T13:02:21;296.17;;;278.63;;
18274;SDS011;19470;49.322;7.218;2023-07-13T13:04:57;1025.95;;;945.50;;
18274;SDS011;19470;49.322;7.218;2023-07-13T13:10:46;1063.13;;;978.85;;
18274;SDS011;19470;49.322;7.218;2023-07-13T13:13:12;1048.10;;;965.88;;
18274;SDS011;19470;49.322;7.218;2023-07-13T13:15:38;1042.45;;;960.85;;
18274;SDS011;19470;49.322;7.218;2023-07-13T13:18:08;1034.82;;;949.45;;
18274;SDS011;19470;49.322;7.218;2023-07-13T13:20:42;1045.78;;;955.05;;
18274;SDS011;19470;49.322;7.218;2023-07-13T13:26:30;790.85;;;738.15;;
18274;SDS011;19470;49.322;7.218;2023-07-13T13:28:58;996.10;;;921.03;;
18274;SDS011;19470;49.322;7.218;2023-07-13T13:31:24;1005.10;;;925.38;;
18274;SDS011;19470;49.322;7.218;2023-07-13T13:33:51;907.60;;;843.15;;
18274;SDS011;19470;49.322;7.218;2023-07-13T13:36:19;965.13;;;893.92;;
18274;SDS011;19470;49.322;7.218;2023-07-13T13:38:48;993.67;;;919.85;;
18274;SDS011;19470;49.322;7.218;2023-07-13T13:41:16;985.15;;;912.20;;
18274;SDS011;19470;49.322;7.218;2023-07-13T13:43:43;1004.15;;;927.75;;
18274;SDS011;19470;49.322;7.218;2023-07-13T13:46:13;974.33;;;898.13;;
18274;SDS011;19470;49.322;7.218;2023-07-13T13:48:42;968.35;;;893.95;;
18274;SDS011;19470;49.322;7.218;2023-07-13T13:51:12;1009.72;;;916.60;;
18274;SDS011;19470;49.322;7.218;2023-07-13T13:53:42;904.50;;;841.80;;
18274;SDS011;19470;49.322;7.218;2023-07-13T13:56:09;917.40;;;851.70;;
18274;SDS011;19470;49.322;7.218;2023-07-13T13:58:35;982.05;;;908.63;;
18274;SDS011;19470;49.322;7.218;2023-07-13T14:01:02;968.20;;;897.38;;
18274;SDS011;19470;49.322;7.218;2023-07-13T14:03:31;990.35;;;916.90;;
18274;SDS011;19470;49.322;7.218;2023-07-13T14:05:57;1015.97;;;938.65;;
18274;SDS011;19470;49.322;7.218;2023-07-13T14:08:23;962.17;;;891.35;;
18274;SDS011;19470;49.322;7.218;2023-07-13T14:10:52;969.38;;;897.72;;
18274;SDS011;19470;49.322;7.218;2023-07-13T14:13:24;948.53;;;880.67;;
18274;SDS011;19470;49.322;7.218;2023-07-13T14:15:54;961.38;;;890.97;;
18274;SDS011;19470;49.322;7.218;2023-07-13T14:18:20;953.42;;;882.53;;
18274;SDS011;19470;49.322;7.218;2023-07-13T14:20:48;949.78;;;881.67;;
18274;SDS011;19470;49.322;7.218;2023-07-13T14:23:15;942.95;;;875.13;;
18274;SDS011;19470;49.322;7.218;2023-07-13T14:25:43;918.53;;;852.88;;
18274;SDS011;19470;49.322;7.218;2023-07-13T14:28:17;925.42;;;860.08;;
18274;SDS011;19470;49.322;7.218;2023-07-13T14:30:47;949.95;;;881.50;;
18274;SDS011;19470;49.322;7.218;2023-07-13T14:33:13;952.25;;;882.05;;
18274;SDS011;19470;49.322;7.218;2023-07-13T14:35:40;933.25;;;867.13;;
18274;SDS011;19470;49.322;7.218;2023-07-13T14:38:08;958.28;;;888.28;;
18274;SDS011;19470;49.322;7.218;2023-07-13T14:40:37;985.65;;;912.97;;
18274;SDS011;19470;49.322;7.218;2023-07-13T14:43:04;983.00;;;910.65;;
18274;SDS011;19470;49.322;7.218;2023-07-13T14:45:34;995.20;;;921.42;;
18274;SDS011;19470;49.322;7.218;2023-07-13T14:48:08;987.75;;;915.25;;
18274;SDS011;19470;49.322;7.218;2023-07-13T14:50:39;986.05;;;913.40;;